sensor_id;sensor_type;location;lat;lon;timestamp;P1;durP1;ratioP1;P2;durP2;ratioP2
75073;SDS011;63652;51.526;5.080;2023-02-10T00:01:20;36.80;;;17.63;;
75073;SDS011;63652;51.526;5.080;2023-02-10T00:03:51;42.70;;;18.63;;
75073;SDS011;63652;51.526;5.080;2023-02-10T00:06:18;36.53;;;18.45;;
75073;SDS011;63652;51.526;5.080;2023-02-10T00:08:48;41.20;;;18.98;;
75073;SDS011;63652;51.526;5.080;2023-02-10T00:11:14;35.42;;;19.27;;
75073;SDS011;63652;51.526;5.080;2023-02-10T00:13:40;39.42;;;18.20;;
75073;SDS011;63652;51.526;5.080;2023-02-10T00:16:07;41.53;;;19.40;;
75073;SDS011;63652;51.526;5.080;2023-02-10T00:18:33;40.05;;;20.10;;
75073;SDS011;63652;51.526;5.080;2023-02-10T00:21:09;41.00;;;19.10;;
75073;SDS011;63652;51.526;5.080;2023-02-10T00:23:35;37.17;;;19.27;;
75073;SDS011;63652;51.526;5.080;2023-02-10T00:26:04;35.53;;;18.15;;
75073;SDS011;63652;51.526;5.080;2023-02-10T00:28:31;35.58;;;19.15;;
75073;SDS011;63652;51.526;5.080;2023-02-10T00:30:57;34.85;;;18.35;;
75073;SDS011;63652;51.526;5.080;2023-02-10T00:33:22;33.53;;;17.77;;
75073;SDS011;63652;51.526;5.080;2023-02-10T00:35:48;36.33;;;17.63;;
75073;SDS011;63652;51.526;5.080;2023-02-10T00:38:13;38.70;;;18.85;;
75073;SDS011;63652;51.526;5.080;2023-02-10T00:40:38;41.20;;;19.10;;
75073;SDS011;63652;51.526;5.080;2023-02-10T00:43:04;41.50;;;20.13;;
75073;SDS011;63652;51.526;5.080;2023-02-10T00:45:29;39.28;;;17.95;;
75073;SDS011;63652;51.526;5.080;2023-02-10T00:47:55;38.85;;;18.98;;
75073;SDS011;63652;51.526;5.080;2023-02-10T00:50:20;36.22;;;18.08;;
75073;SDS011;63652;51.526;5.080;2023-02-10T00:52:45;40.55;;;19.67;;
75073;SDS011;63652;51.526;5.080;2023-02-10T00:55:11;31.27;;;18.23;;
75073;SDS011;63652;51.526;5.080;2023-02-10T00:57:36;40.50;;;19.15;;
75073;SDS011;63652;51.526;5.080;2023-02-10T01:00:02;36.47;;;18.58;;
75073;SDS011;63652;51.526;5.080;2023-02-10T01:02:28;39.13;;;18.92;;
75073;SDS011;63652;51.526;5.080;2023-02-10T01:04:54;37.30;;;17.77;;
75073;SDS011;63652;51.526;5.080;2023-02-10T01:07:19;44.28;;;18.42;;
75073;SDS011;63652;51.526;5.080;2023-02-10T01:09:44;38.85;;;19.50;;
75073;SDS011;63652;51.526;5.080;2023-02-10T01:12:10;36.22;;;17.73;;
75073;SDS011;63652;51.526;5.080;2023-02-10T01:14:35;38.13;;;18.65;;
75073;SDS011;63652;51.526;5.080;2023-02-10T01:17:00;41.00;;;19.45;;
75073;SDS011;63652;51.526;5.080;2023-02-10T01:19:26;36.58;;;19.00;;
75073;SDS011;63652;51.526;5.080;2023-02-10T01:21:51;39.85;;;18.73;;
75073;SDS011;63652;51.526;5.080;2023-02-10T01:24:17;39.47;;;17.80;;
75073;SDS011;63652;51.526;5.080;2023-02-10T01:26:42;40.70;;;20.20;;
75073;SDS011;63652;51.526;5.080;2023-02-10T01:29:07;39.97;;;19.27;;
75073;SDS011;63652;51.526;5.080;2023-02-10T01:31:33;43.42;;;18.70;;
75073;SDS011;63652;51.526;5.080;2023-02-10T01:33:58;47.38;;;19.52;;
75073;SDS011;63652;51.526;5.080;2023-02-10T01:36:24;37.60;;;18.77;;
75073;SDS011;63652;51.526;5.080;2023-02-10T01:38:50;35.08;;;18.67;;
75073;SDS011;63652;51.526;5.080;2023-02-10T01:41:17;38.90;;;18.58;;
75073;SDS011;63652;51.526;5.080;2023-02-10T01:46:51;37.83;;;18.23;;
75073;SDS011;63652;51.526;5.080;2023-02-10T01:49:21;42.15;;;20.70;;
75073;SDS011;63652;51.526;5.080;2023-02-10T01:54:23;42.45;;;20.73;;
75073;SDS011;63652;51.526;5.080;2023-02-10T01:56:50;43.40;;;20.42;;
75073;SDS011;63652;51.526;5.080;2023-02-10T01:59:16;42.70;;;19.20;;
75073;SDS011;63652;51.526;5.080;2023-02-10T02:01:43;44.85;;;21.60;;
75073;SDS011;63652;51.526;5.080;2023-02-10T02:04:09;47.45;;;21.92;;
75073;SDS011;63652;51.526;5.080;2023-02-10T02:06:34;42.00;;;20.08;;
75073;SDS011;63652;51.526;5.080;2023-02-10T02:09:00;45.63;;;20.92;;
75073;SDS011;63652;51.526;5.080;2023-02-10T02:16:42;43.92;;;21.08;;
75073;SDS011;63652;51.526;5.080;2023-02-10T02:22:43;40.83;;;21.23;;
75073;SDS011;63652;51.526;5.080;2023-02-10T02:28:11;41.85;;;22.15;;
75073;SDS011;63652;51.526;5.080;2023-02-10T02:34:01;39.70;;;21.00;;
75073;SDS011;63652;51.526;5.080;2023-02-10T02:36:29;40.78;;;21.35;;
75073;SDS011;63652;51.526;5.080;2023-02-10T02:39:01;40.75;;;19.98;;
75073;SDS011;63652;51.526;5.080;2023-02-10T02:41:28;46.45;;;21.90;;
75073;SDS011;63652;51.526;5.080;2023-02-10T02:43:54;41.33;;;20.60;;
75073;SDS011;63652;51.526;5.080;2023-02-10T02:52:12;42.75;;;20.08;;
75073;SDS011;63652;51.526;5.080;2023-02-10T02:54:47;40.97;;;20.45;;
75073;SDS011;63652;51.526;5.080;2023-02-10T02:57:40;42.78;;;20.95;;
75073;SDS011;63652;51.526;5.080;2023-02-10T03:00:22;43.55;;;19.13;;
75073;SDS011;63652;51.526;5.080;2023-02-10T03:02:49;44.38;;;21.55;;
75073;SDS011;63652;51.526;5.080;2023-02-10T03:05:21;43.13;;;20.52;;
75073;SDS011;63652;51.526;5.080;2023-02-10T03:07:49;44.15;;;20.73;;
75073;SDS011;63652;51.526;5.080;2023-02-10T03:10:15;41.53;;;21.33;;
75073;SDS011;63652;51.526;5.080;2023-02-10T03:12:40;41.88;;;20.83;;
75073;SDS011;63652;51.526;5.080;2023-02-10T03:15:06;42.85;;;20.38;;
75073;SDS011;63652;51.526;5.080;2023-02-10T03:17:32;46.35;;;20.52;;
75073;SDS011;63652;51.526;5.080;2023-02-10T03:19:57;44.95;;;21.40;;
75073;SDS011;63652;51.526;5.080;2023-02-10T03:22:22;44.28;;;21.90;;
75073;SDS011;63652;51.526;5.080;2023-02-10T03:24:48;44.97;;;22.45;;
75073;SDS011;63652;51.526;5.080;2023-02-10T03:27:13;49.13;;;22.02;;
75073;SDS011;63652;51.526;5.080;2023-02-10T03:29:38;46.80;;;20.38;;
75073;SDS011;63652;51.526;5.080;2023-02-10T03:32:04;46.00;;;23.10;;
75073;SDS011;63652;51.526;5.080;2023-02-10T03:34:30;42.15;;;21.25;;
75073;SDS011;63652;51.526;5.080;2023-02-10T03:36:56;44.78;;;21.52;;
75073;SDS011;63652;51.526;5.080;2023-02-10T03:39:21;47.42;;;22.38;;
75073;SDS011;63652;51.526;5.080;2023-02-10T03:41:46;45.30;;;22.20;;
75073;SDS011;63652;51.526;5.080;2023-02-10T03:44:12;42.50;;;20.77;;
75073;SDS011;63652;51.526;5.080;2023-02-10T03:46:37;41.28;;;20.52;;
75073;SDS011;63652;51.526;5.080;2023-02-10T03:49:03;47.85;;;21.38;;
75073;SDS011;63652;51.526;5.080;2023-02-10T03:51:29;41.92;;;19.77;;
75073;SDS011;63652;51.526;5.080;2023-02-10T03:53:55;42.80;;;20.80;;
75073;SDS011;63652;51.526;5.080;2023-02-10T03:56:20;46.10;;;22.23;;
75073;SDS011;63652;51.526;5.080;2023-02-10T03:58:46;40.95;;;23.33;;
75073;SDS011;63652;51.526;5.080;2023-02-10T04:01:12;40.85;;;21.30;;
75073;SDS011;63652;51.526;5.080;2023-02-10T04:03:39;50.78;;;22.10;;
75073;SDS011;63652;51.526;5.080;2023-02-10T04:06:05;48.25;;;22.52;;
75073;SDS011;63652;51.526;5.080;2023-02-10T04:08:30;56.13;;;23.63;;
75073;SDS011;63652;51.526;5.080;2023-02-10T04:10:56;45.88;;;21.80;;
75073;SDS011;63652;51.526;5.080;2023-02-10T04:13:21;48.58;;;22.08;;
75073;SDS011;63652;51.526;5.080;2023-02-10T04:15:47;46.90;;;22.60;;
75073;SDS011;63652;51.526;5.080;2023-02-10T04:18:13;46.60;;;22.70;;
75073;SDS011;63652;51.526;5.080;2023-02-10T04:20:38;43.03;;;21.90;;
75073;SDS011;63652;51.526;5.080;2023-02-10T04:23:03;46.42;;;23.38;;
75073;SDS011;63652;51.526;5.080;2023-02-10T04:25:29;45.45;;;22.52;;
75073;SDS011;63652;51.526;5.080;2023-02-10T04:27:54;55.22;;;23.60;;
75073;SDS011;63652;51.526;5.080;2023-02-10T04:30:20;55.50;;;24.92;;
75073;SDS011;63652;51.526;5.080;2023-02-10T04:32:45;59.25;;;25.90;;
75073;SDS011;63652;51.526;5.080;2023-02-10T04:35:10;71.63;;;27.77;;
75073;SDS011;63652;51.526;5.080;2023-02-10T04:37:36;75.70;;;29.67;;
75073;SDS011;63652;51.526;5.080;2023-02-10T04:40:01;85.55;;;32.58;;
75073;SDS011;63652;51.526;5.080;2023-02-10T04:42:27;89.47;;;33.53;;
75073;SDS011;63652;51.526;5.080;2023-02-10T04:44:58;106.82;;;36.83;;
75073;SDS011;63652;51.526;5.080;2023-02-10T04:47:25;108.13;;;34.58;;
75073;SDS011;63652;51.526;5.080;2023-02-10T04:49:51;94.88;;;33.95;;
75073;SDS011;63652;51.526;5.080;2023-02-10T04:52:16;83.10;;;32.85;;
75073;SDS011;63652;51.526;5.080;2023-02-10T04:54:41;83.55;;;31.63;;
75073;SDS011;63652;51.526;5.080;2023-02-10T04:57:07;117.47;;;34.28;;
75073;SDS011;63652;51.526;5.080;2023-02-10T04:59:35;85.38;;;33.03;;
75073;SDS011;63652;51.526;5.080;2023-02-10T05:02:00;153.70;;;36.42;;
75073;SDS011;63652;51.526;5.080;2023-02-10T05:04:27;114.43;;;35.28;;
75073;SDS011;63652;51.526;5.080;2023-02-10T05:06:53;84.70;;;29.05;;
75073;SDS011;63652;51.526;5.080;2023-02-10T05:09:18;87.35;;;33.63;;
75073;SDS011;63652;51.526;5.080;2023-02-10T05:11:44;119.55;;;35.35;;
75073;SDS011;63652;51.526;5.080;2023-02-10T05:14:09;75.13;;;32.47;;
75073;SDS011;63652;51.526;5.080;2023-02-10T05:16:34;81.68;;;31.15;;
75073;SDS011;63652;51.526;5.080;2023-02-10T05:19:00;74.93;;;28.20;;
75073;SDS011;63652;51.526;5.080;2023-02-10T05:21:25;95.70;;;32.25;;
75073;SDS011;63652;51.526;5.080;2023-02-10T05:23:50;76.28;;;29.73;;
75073;SDS011;63652;51.526;5.080;2023-02-10T05:26:16;94.07;;;29.98;;
75073;SDS011;63652;51.526;5.080;2023-02-10T05:28:41;69.93;;;28.73;;
75073;SDS011;63652;51.526;5.080;2023-02-10T05:31:06;79.32;;;31.30;;
75073;SDS011;63652;51.526;5.080;2023-02-10T05:33:33;77.85;;;28.83;;
75073;SDS011;63652;51.526;5.080;2023-02-10T05:35:59;101.90;;;29.70;;
75073;SDS011;63652;51.526;5.080;2023-02-10T05:38:24;76.18;;;28.35;;
75073;SDS011;63652;51.526;5.080;2023-02-10T05:40:51;77.82;;;27.38;;
75073;SDS011;63652;51.526;5.080;2023-02-10T05:43:17;70.75;;;27.65;;
75073;SDS011;63652;51.526;5.080;2023-02-10T05:45:42;59.00;;;25.77;;
75073;SDS011;63652;51.526;5.080;2023-02-10T05:48:10;66.88;;;26.77;;
75073;SDS011;63652;51.526;5.080;2023-02-10T05:50:36;69.68;;;25.58;;
75073;SDS011;63652;51.526;5.080;2023-02-10T05:53:02;67.20;;;25.17;;
75073;SDS011;63652;51.526;5.080;2023-02-10T05:55:27;62.50;;;26.90;;
75073;SDS011;63652;51.526;5.080;2023-02-10T05:57:52;73.03;;;27.23;;
75073;SDS011;63652;51.526;5.080;2023-02-10T06:00:18;79.60;;;28.15;;
75073;SDS011;63652;51.526;5.080;2023-02-10T06:02:43;72.03;;;27.73;;
75073;SDS011;63652;51.526;5.080;2023-02-10T06:05:09;74.55;;;26.73;;
75073;SDS011;63652;51.526;5.080;2023-02-10T06:07:35;63.75;;;25.58;;
75073;SDS011;63652;51.526;5.080;2023-02-10T06:10:00;73.82;;;27.10;;
75073;SDS011;63652;51.526;5.080;2023-02-10T06:12:25;84.25;;;26.50;;
75073;SDS011;63652;51.526;5.080;2023-02-10T06:14:51;111.55;;;31.25;;
75073;SDS011;63652;51.526;5.080;2023-02-10T06:17:16;91.13;;;27.67;;
75073;SDS011;63652;51.526;5.080;2023-02-10T06:19:42;83.20;;;30.25;;
75073;SDS011;63652;51.526;5.080;2023-02-10T06:22:07;76.00;;;27.58;;
75073;SDS011;63652;51.526;5.080;2023-02-10T06:24:33;118.45;;;32.80;;
75073;SDS011;63652;51.526;5.080;2023-02-10T06:26:59;79.40;;;30.30;;
75073;SDS011;63652;51.526;5.080;2023-02-10T06:29:24;81.95;;;30.75;;
75073;SDS011;63652;51.526;5.080;2023-02-10T06:31:50;89.28;;;27.50;;
75073;SDS011;63652;51.526;5.080;2023-02-10T06:34:15;98.53;;;33.25;;
75073;SDS011;63652;51.526;5.080;2023-02-10T06:36:41;130.02;;;35.53;;
75073;SDS011;63652;51.526;5.080;2023-02-10T06:39:06;106.63;;;32.83;;
75073;SDS011;63652;51.526;5.080;2023-02-10T06:41:32;82.10;;;29.00;;
75073;SDS011;63652;51.526;5.080;2023-02-10T06:43:58;79.57;;;29.55;;
75073;SDS011;63652;51.526;5.080;2023-02-10T06:46:23;90.97;;;29.73;;
75073;SDS011;63652;51.526;5.080;2023-02-10T06:48:49;98.78;;;31.58;;
75073;SDS011;63652;51.526;5.080;2023-02-10T06:51:15;77.90;;;27.90;;
75073;SDS011;63652;51.526;5.080;2023-02-10T06:53:40;113.68;;;32.70;;
75073;SDS011;63652;51.526;5.080;2023-02-10T06:56:07;127.47;;;34.42;;
75073;SDS011;63652;51.526;5.080;2023-02-10T06:58:33;122.22;;;32.92;;
75073;SDS011;63652;51.526;5.080;2023-02-10T07:00:58;134.50;;;33.90;;
75073;SDS011;63652;51.526;5.080;2023-02-10T07:03:25;115.90;;;31.27;;
75073;SDS011;63652;51.526;5.080;2023-02-10T07:05:51;119.32;;;33.15;;
75073;SDS011;63652;51.526;5.080;2023-02-10T07:08:17;191.15;;;40.58;;
75073;SDS011;63652;51.526;5.080;2023-02-10T07:10:42;114.20;;;31.27;;
75073;SDS011;63652;51.526;5.080;2023-02-10T07:13:08;122.20;;;34.25;;
75073;SDS011;63652;51.526;5.080;2023-02-10T07:15:33;185.57;;;41.25;;
75073;SDS011;63652;51.526;5.080;2023-02-10T07:17:59;153.65;;;36.72;;
75073;SDS011;63652;51.526;5.080;2023-02-10T07:20:24;134.02;;;33.92;;
75073;SDS011;63652;51.526;5.080;2023-02-10T07:22:50;127.22;;;35.90;;
75073;SDS011;63652;51.526;5.080;2023-02-10T07:25:16;128.57;;;32.75;;
75073;SDS011;63652;51.526;5.080;2023-02-10T07:27:42;158.98;;;37.70;;
75073;SDS011;63652;51.526;5.080;2023-02-10T07:30:08;155.40;;;37.42;;
75073;SDS011;63652;51.526;5.080;2023-02-10T07:32:35;112.45;;;34.67;;
75073;SDS011;63652;51.526;5.080;2023-02-10T07:35:00;165.13;;;38.35;;
75073;SDS011;63652;51.526;5.080;2023-02-10T07:37:26;182.15;;;42.63;;
75073;SDS011;63652;51.526;5.080;2023-02-10T07:39:51;158.10;;;39.75;;
75073;SDS011;63652;51.526;5.080;2023-02-10T07:42:17;103.80;;;34.53;;
75073;SDS011;63652;51.526;5.080;2023-02-10T07:44:42;135.93;;;37.97;;
75073;SDS011;63652;51.526;5.080;2023-02-10T07:47:09;138.48;;;36.55;;
75073;SDS011;63652;51.526;5.080;2023-02-10T07:49:35;143.82;;;39.60;;
75073;SDS011;63652;51.526;5.080;2023-02-10T07:52:00;147.10;;;42.00;;
75073;SDS011;63652;51.526;5.080;2023-02-10T07:54:26;137.40;;;37.58;;
75073;SDS011;63652;51.526;5.080;2023-02-10T07:56:51;146.13;;;35.20;;
75073;SDS011;63652;51.526;5.080;2023-02-10T07:59:16;146.13;;;41.08;;
75073;SDS011;63652;51.526;5.080;2023-02-10T08:01:42;137.48;;;36.83;;
75073;SDS011;63652;51.526;5.080;2023-02-10T08:04:11;130.25;;;37.45;;
75073;SDS011;63652;51.526;5.080;2023-02-10T08:06:37;143.40;;;38.60;;
75073;SDS011;63652;51.526;5.080;2023-02-10T08:09:02;138.27;;;38.28;;
75073;SDS011;63652;51.526;5.080;2023-02-10T08:11:28;133.00;;;36.42;;
75073;SDS011;63652;51.526;5.080;2023-02-10T08:13:54;157.63;;;40.40;;
75073;SDS011;63652;51.526;5.080;2023-02-10T08:16:19;111.38;;;33.05;;
75073;SDS011;63652;51.526;5.080;2023-02-10T08:18:44;131.15;;;34.65;;
75073;SDS011;63652;51.526;5.080;2023-02-10T08:21:10;123.60;;;32.67;;
75073;SDS011;63652;51.526;5.080;2023-02-10T08:23:35;118.50;;;34.00;;
75073;SDS011;63652;51.526;5.080;2023-02-10T08:26:05;107.93;;;32.03;;
75073;SDS011;63652;51.526;5.080;2023-02-10T08:28:31;118.88;;;34.08;;
75073;SDS011;63652;51.526;5.080;2023-02-10T08:31:00;102.90;;;30.23;;
75073;SDS011;63652;51.526;5.080;2023-02-10T08:33:26;108.75;;;30.92;;
75073;SDS011;63652;51.526;5.080;2023-02-10T08:35:52;111.20;;;34.13;;
75073;SDS011;63652;51.526;5.080;2023-02-10T08:38:17;106.18;;;33.17;;
75073;SDS011;63652;51.526;5.080;2023-02-10T08:40:43;103.18;;;32.90;;
75073;SDS011;63652;51.526;5.080;2023-02-10T08:43:08;119.72;;;34.70;;
75073;SDS011;63652;51.526;5.080;2023-02-10T08:45:33;121.03;;;35.65;;
75073;SDS011;63652;51.526;5.080;2023-02-10T08:47:59;121.82;;;31.13;;
75073;SDS011;63652;51.526;5.080;2023-02-10T08:50:26;139.85;;;34.88;;
75073;SDS011;63652;51.526;5.080;2023-02-10T08:52:52;111.13;;;37.60;;
75073;SDS011;63652;51.526;5.080;2023-02-10T08:55:17;104.25;;;28.50;;
75073;SDS011;63652;51.526;5.080;2023-02-10T08:57:42;117.85;;;33.97;;
75073;SDS011;63652;51.526;5.080;2023-02-10T09:00:08;123.43;;;35.55;;
75073;SDS011;63652;51.526;5.080;2023-02-10T09:02:34;126.55;;;37.00;;
75073;SDS011;63652;51.526;5.080;2023-02-10T09:04:59;132.35;;;39.15;;
75073;SDS011;63652;51.526;5.080;2023-02-10T09:07:24;113.15;;;33.83;;
75073;SDS011;63652;51.526;5.080;2023-02-10T09:09:50;100.00;;;27.90;;
75073;SDS011;63652;51.526;5.080;2023-02-10T09:12:15;100.90;;;28.75;;
75073;SDS011;63652;51.526;5.080;2023-02-10T09:14:40;98.05;;;31.55;;
75073;SDS011;63652;51.526;5.080;2023-02-10T09:17:06;91.57;;;28.20;;
75073;SDS011;63652;51.526;5.080;2023-02-10T09:19:36;96.88;;;31.40;;
75073;SDS011;63652;51.526;5.080;2023-02-10T09:22:03;144.25;;;37.95;;
75073;SDS011;63652;51.526;5.080;2023-02-10T09:24:29;120.20;;;34.10;;
75073;SDS011;63652;51.526;5.080;2023-02-10T09:26:55;123.25;;;36.38;;
75073;SDS011;63652;51.526;5.080;2023-02-10T09:29:20;123.63;;;35.40;;
75073;SDS011;63652;51.526;5.080;2023-02-10T09:31:45;129.20;;;38.13;;
75073;SDS011;63652;51.526;5.080;2023-02-10T09:34:11;139.90;;;37.92;;
75073;SDS011;63652;51.526;5.080;2023-02-10T09:36:36;149.95;;;41.60;;
75073;SDS011;63652;51.526;5.080;2023-02-10T09:39:02;130.48;;;40.95;;
75073;SDS011;63652;51.526;5.080;2023-02-10T09:54:53;130.90;;;39.35;;
75073;SDS011;63652;51.526;5.080;2023-02-10T09:57:20;126.15;;;39.88;;
75073;SDS011;63652;51.526;5.080;2023-02-10T09:59:49;119.97;;;39.00;;
75073;SDS011;63652;51.526;5.080;2023-02-10T10:02:18;115.72;;;38.63;;
75073;SDS011;63652;51.526;5.080;2023-02-10T10:04:47;122.03;;;37.22;;
75073;SDS011;63652;51.526;5.080;2023-02-10T10:12:52;122.55;;;40.17;;
75073;SDS011;63652;51.526;5.080;2023-02-10T10:15:19;123.95;;;37.88;;
75073;SDS011;63652;51.526;5.080;2023-02-10T10:20:38;120.38;;;39.13;;
75073;SDS011;63652;51.526;5.080;2023-02-10T10:31:39;131.43;;;40.90;;
75073;SDS011;63652;51.526;5.080;2023-02-10T10:36:36;136.57;;;44.35;;
75073;SDS011;63652;51.526;5.080;2023-02-10T10:42:15;142.23;;;48.08;;
75073;SDS011;63652;51.526;5.080;2023-02-10T10:44:49;144.68;;;43.75;;
75073;SDS011;63652;51.526;5.080;2023-02-10T10:47:20;133.38;;;43.85;;
75073;SDS011;63652;51.526;5.080;2023-02-10T10:52:27;122.30;;;40.70;;
75073;SDS011;63652;51.526;5.080;2023-02-10T10:54:56;131.65;;;45.55;;
75073;SDS011;63652;51.526;5.080;2023-02-10T10:57:22;131.20;;;41.60;;
75073;SDS011;63652;51.526;5.080;2023-02-10T10:59:51;135.38;;;48.03;;
75073;SDS011;63652;51.526;5.080;2023-02-10T11:02:20;130.65;;;44.67;;
75073;SDS011;63652;51.526;5.080;2023-02-10T11:05:03;135.32;;;46.03;;
75073;SDS011;63652;51.526;5.080;2023-02-10T11:07:31;128.43;;;44.00;;
75073;SDS011;63652;51.526;5.080;2023-02-10T11:09:57;134.68;;;46.65;;
75073;SDS011;63652;51.526;5.080;2023-02-10T11:14:50;118.45;;;44.20;;
75073;SDS011;63652;51.526;5.080;2023-02-10T11:19:54;108.40;;;38.15;;
75073;SDS011;63652;51.526;5.080;2023-02-10T11:22:21;92.55;;;36.97;;
75073;SDS011;63652;51.526;5.080;2023-02-10T11:24:51;93.85;;;34.63;;
75073;SDS011;63652;51.526;5.080;2023-02-10T11:27:19;88.38;;;35.13;;
75073;SDS011;63652;51.526;5.080;2023-02-10T11:29:48;88.90;;;33.35;;
75073;SDS011;63652;51.526;5.080;2023-02-10T11:32:22;94.95;;;34.08;;
75073;SDS011;63652;51.526;5.080;2023-02-10T11:34:49;98.93;;;36.50;;
75073;SDS011;63652;51.526;5.080;2023-02-10T11:37:23;104.95;;;38.97;;
75073;SDS011;63652;51.526;5.080;2023-02-10T11:39:52;94.10;;;36.55;;
75073;SDS011;63652;51.526;5.080;2023-02-10T11:42:26;95.38;;;37.10;;
75073;SDS011;63652;51.526;5.080;2023-02-10T11:47:28;99.97;;;38.05;;
75073;SDS011;63652;51.526;5.080;2023-02-10T11:49:55;93.22;;;37.42;;
75073;SDS011;63652;51.526;5.080;2023-02-10T11:52:22;105.68;;;37.83;;
75073;SDS011;63652;51.526;5.080;2023-02-10T11:54:49;87.70;;;38.30;;
75073;SDS011;63652;51.526;5.080;2023-02-10T12:08:04;98.47;;;42.08;;
75073;SDS011;63652;51.526;5.080;2023-02-10T12:10:52;97.68;;;37.47;;
75073;SDS011;63652;51.526;5.080;2023-02-10T12:22:00;82.50;;;34.85;;
75073;SDS011;63652;51.526;5.080;2023-02-10T12:32:36;74.82;;;33.58;;
75073;SDS011;63652;51.526;5.080;2023-02-10T12:35:20;83.30;;;36.10;;
75073;SDS011;63652;51.526;5.080;2023-02-10T12:42:58;79.57;;;34.45;;
75073;SDS011;63652;51.526;5.080;2023-02-10T12:53:46;70.60;;;32.58;;
75073;SDS011;63652;51.526;5.080;2023-02-10T12:56:21;60.72;;;31.58;;
75073;SDS011;63652;51.526;5.080;2023-02-10T12:58:50;64.32;;;28.70;;
75073;SDS011;63652;51.526;5.080;2023-02-10T13:01:26;57.53;;;26.65;;
75073;SDS011;63652;51.526;5.080;2023-02-10T13:04:15;53.58;;;27.60;;
75073;SDS011;63652;51.526;5.080;2023-02-10T13:06:51;49.72;;;24.27;;
75073;SDS011;63652;51.526;5.080;2023-02-10T13:09:28;53.85;;;25.13;;
75073;SDS011;63652;51.526;5.080;2023-02-10T13:14:36;53.88;;;26.58;;
75073;SDS011;63652;51.526;5.080;2023-02-10T13:17:04;60.17;;;28.48;;
75073;SDS011;63652;51.526;5.080;2023-02-10T13:19:36;58.58;;;28.58;;
75073;SDS011;63652;51.526;5.080;2023-02-10T13:22:15;58.10;;;27.85;;
75073;SDS011;63652;51.526;5.080;2023-02-10T13:35:43;51.60;;;24.95;;
75073;SDS011;63652;51.526;5.080;2023-02-10T13:38:13;50.15;;;22.45;;
75073;SDS011;63652;51.526;5.080;2023-02-10T13:40:44;56.10;;;25.00;;
75073;SDS011;63652;51.526;5.080;2023-02-10T13:43:31;58.67;;;25.38;;
75073;SDS011;63652;51.526;5.080;2023-02-10T13:45:57;48.38;;;25.40;;
75073;SDS011;63652;51.526;5.080;2023-02-10T13:48:25;57.03;;;25.23;;
75073;SDS011;63652;51.526;5.080;2023-02-10T13:51:04;49.80;;;21.60;;
75073;SDS011;63652;51.526;5.080;2023-02-10T13:56:51;51.75;;;22.65;;
75073;SDS011;63652;51.526;5.080;2023-02-10T14:06:52;50.33;;;21.70;;
75073;SDS011;63652;51.526;5.080;2023-02-10T14:11:45;49.70;;;23.08;;
75073;SDS011;63652;51.526;5.080;2023-02-10T14:14:24;51.63;;;21.63;;
75073;SDS011;63652;51.526;5.080;2023-02-10T14:16:51;52.00;;;23.70;;
75073;SDS011;63652;51.526;5.080;2023-02-10T14:19:50;50.85;;;22.30;;
75073;SDS011;63652;51.526;5.080;2023-02-10T14:25:14;47.38;;;21.92;;
75073;SDS011;63652;51.526;5.080;2023-02-10T14:27:40;47.67;;;21.38;;
75073;SDS011;63652;51.526;5.080;2023-02-10T14:30:12;52.28;;;23.10;;
75073;SDS011;63652;51.526;5.080;2023-02-10T14:32:44;47.65;;;23.00;;
75073;SDS011;63652;51.526;5.080;2023-02-10T14:35:20;53.22;;;22.95;;
75073;SDS011;63652;51.526;5.080;2023-02-10T14:37:53;47.17;;;21.85;;
75073;SDS011;63652;51.526;5.080;2023-02-10T14:40:20;48.00;;;22.98;;
75073;SDS011;63652;51.526;5.080;2023-02-10T14:42:46;50.80;;;21.83;;
75073;SDS011;63652;51.526;5.080;2023-02-10T14:45:22;48.42;;;23.42;;
75073;SDS011;63652;51.526;5.080;2023-02-10T14:47:50;49.88;;;23.55;;
75073;SDS011;63652;51.526;5.080;2023-02-10T14:52:55;50.13;;;21.65;;
75073;SDS011;63652;51.526;5.080;2023-02-10T14:55:25;48.53;;;22.73;;
75073;SDS011;63652;51.526;5.080;2023-02-10T14:57:56;48.40;;;19.67;;
75073;SDS011;63652;51.526;5.080;2023-02-10T15:00:23;39.08;;;17.88;;
75073;SDS011;63652;51.526;5.080;2023-02-10T15:02:52;56.17;;;22.73;;
75073;SDS011;63652;51.526;5.080;2023-02-10T15:05:22;47.72;;;21.40;;
75073;SDS011;63652;51.526;5.080;2023-02-10T15:07:49;49.67;;;21.83;;
75073;SDS011;63652;51.526;5.080;2023-02-10T15:10:21;50.83;;;21.67;;
75073;SDS011;63652;51.526;5.080;2023-02-10T15:13:04;38.83;;;19.00;;
75073;SDS011;63652;51.526;5.080;2023-02-10T15:15:40;43.13;;;20.45;;
75073;SDS011;63652;51.526;5.080;2023-02-10T15:18:08;43.85;;;19.88;;
75073;SDS011;63652;51.526;5.080;2023-02-10T15:20:38;47.92;;;19.88;;
75073;SDS011;63652;51.526;5.080;2023-02-10T15:23:14;42.10;;;18.65;;
75073;SDS011;63652;51.526;5.080;2023-02-10T15:25:41;44.75;;;20.48;;
75073;SDS011;63652;51.526;5.080;2023-02-10T15:36:34;44.08;;;20.35;;
75073;SDS011;63652;51.526;5.080;2023-02-10T15:46:42;48.22;;;20.27;;
75073;SDS011;63652;51.526;5.080;2023-02-10T15:49:08;41.42;;;18.58;;
75073;SDS011;63652;51.526;5.080;2023-02-10T15:51:38;45.97;;;20.55;;
75073;SDS011;63652;51.526;5.080;2023-02-10T15:54:08;45.45;;;20.73;;
75073;SDS011;63652;51.526;5.080;2023-02-10T15:56:37;46.58;;;20.50;;
75073;SDS011;63652;51.526;5.080;2023-02-10T15:59:04;44.25;;;20.45;;
75073;SDS011;63652;51.526;5.080;2023-02-10T16:01:34;51.55;;;20.95;;
75073;SDS011;63652;51.526;5.080;2023-02-10T16:04:00;48.03;;;19.95;;
75073;SDS011;63652;51.526;5.080;2023-02-10T16:06:27;46.47;;;19.50;;
75073;SDS011;63652;51.526;5.080;2023-02-10T16:08:53;49.03;;;20.15;;
75073;SDS011;63652;51.526;5.080;2023-02-10T16:11:18;46.85;;;19.17;;
75073;SDS011;63652;51.526;5.080;2023-02-10T16:13:43;46.47;;;21.52;;
75073;SDS011;63652;51.526;5.080;2023-02-10T16:16:12;48.47;;;19.38;;
75073;SDS011;63652;51.526;5.080;2023-02-10T16:18:39;51.97;;;21.80;;
75073;SDS011;63652;51.526;5.080;2023-02-10T16:21:06;51.67;;;20.77;;
75073;SDS011;63652;51.526;5.080;2023-02-10T16:23:31;47.25;;;20.83;;
75073;SDS011;63652;51.526;5.080;2023-02-10T16:25:57;53.05;;;21.45;;
75073;SDS011;63652;51.526;5.080;2023-02-10T16:28:24;51.45;;;21.05;;
75073;SDS011;63652;51.526;5.080;2023-02-10T16:30:49;52.83;;;20.13;;
75073;SDS011;63652;51.526;5.080;2023-02-10T16:33:14;57.03;;;21.75;;
75073;SDS011;63652;51.526;5.080;2023-02-10T16:35:40;64.60;;;21.65;;
75073;SDS011;63652;51.526;5.080;2023-02-10T16:38:06;51.15;;;20.80;;
75073;SDS011;63652;51.526;5.080;2023-02-10T16:40:32;49.40;;;19.25;;
75073;SDS011;63652;51.526;5.080;2023-02-10T16:42:59;60.10;;;21.38;;
75073;SDS011;63652;51.526;5.080;2023-02-10T16:45:26;52.30;;;21.33;;
75073;SDS011;63652;51.526;5.080;2023-02-10T16:47:52;63.03;;;23.42;;
75073;SDS011;63652;51.526;5.080;2023-02-10T16:50:29;65.47;;;24.55;;
75073;SDS011;63652;51.526;5.080;2023-02-10T16:52:55;58.35;;;23.23;;
75073;SDS011;63652;51.526;5.080;2023-02-10T16:55:20;63.67;;;24.08;;
75073;SDS011;63652;51.526;5.080;2023-02-10T16:57:46;59.97;;;21.95;;
75073;SDS011;63652;51.526;5.080;2023-02-10T17:00:12;61.40;;;20.45;;
75073;SDS011;63652;51.526;5.080;2023-02-10T17:02:39;56.03;;;20.70;;